sensor_id;sensor_type;location;lat;lon;timestamp;temperature;humidity
60723;DHT22;46574;52.818;6.516;2022-12-18T00:02:22;-2.50;99.90
60723;DHT22;46574;52.818;6.516;2022-12-18T00:04:48;-2.60;99.90
60723;DHT22;46574;52.818;6.516;2022-12-18T00:07:13;-2.60;99.90
60723;DHT22;46574;52.818;6.516;2022-12-18T00:09:39;-2.60;99.90
60723;DHT22;46574;52.818;6.516;2022-12-18T00:12:05;-2.50;99.90
60723;DHT22;46574;52.818;6.516;2022-12-18T00:14:30;-2.70;99.90
60723;DHT22;46574;52.818;6.516;2022-12-18T00:16:56;-2.70;99.90
60723;DHT22;46574;52.818;6.516;2022-12-18T00:19:23;-2.60;99.90
60723;DHT22;46574;52.818;6.516;2022-12-18T00:21:49;-2.70;99.90
60723;DHT22;46574;52.818;6.516;2022-12-18T00:24:15;-2.70;99.90
60723;DHT22;46574;52.818;6.516;2022-12-18T00:26:40;-2.70;99.90
60723;DHT22;46574;52.818;6.516;2022-12-18T00:29:09;-2.70;99.90
60723;DHT22;46574;52.818;6.516;2022-12-18T00:31:37;-2.80;99.90
60723;DHT22;46574;52.818;6.516;2022-12-18T00:34:03;-2.80;99.90
60723;DHT22;46574;52.818;6.516;2022-12-18T00:36:32;-2.80;99.90
60723;DHT22;46574;52.818;6.516;2022-12-18T00:39:00;-2.80;99.90
60723;DHT22;46574;52.818;6.516;2022-12-18T00:41:27;-2.80;99.90
60723;DHT22;46574;52.818;6.516;2022-12-18T00:44:13;-2.80;99.90
60723;DHT22;46574;52.818;6.516;2022-12-18T00:46:40;-2.80;99.90
60723;DHT22;46574;52.818;6.516;2022-12-18T00:49:07;-2.80;99.90
60723;DHT22;46574;52.818;6.516;2022-12-18T00:51:32;-2.70;99.90
60723;DHT22;46574;52.818;6.516;2022-12-18T00:53:58;-2.80;99.90
60723;DHT22;46574;52.818;6.516;2022-12-18T00:56:24;-2.80;99.90
60723;DHT22;46574;52.818;6.516;2022-12-18T00:58:50;-2.80;99.90
60723;DHT22;46574;52.818;6.516;2022-12-18T01:01:16;-2.90;99.90
60723;DHT22;46574;52.818;6.516;2022-12-18T01:03:41;-2.90;99.90
60723;DHT22;46574;52.818;6.516;2022-12-18T01:06:09;-2.90;99.90
60723;DHT22;46574;52.818;6.516;2022-12-18T01:08:36;-2.90;99.90
60723;DHT22;46574;52.818;6.516;2022-12-18T01:11:11;-2.90;99.90
60723;DHT22;46574;52.818;6.516;2022-12-18T01:13:37;-2.90;99.90
60723;DHT22;46574;52.818;6.516;2022-12-18T01:16:03;-2.90;99.90
60723;DHT22;46574;52.818;6.516;2022-12-18T01:18:29;-3.00;99.90
60723;DHT22;46574;52.818;6.516;2022-12-18T01:20:54;-3.00;99.90
60723;DHT22;46574;52.818;6.516;2022-12-18T01:23:20;-3.00;99.90
60723;DHT22;46574;52.818;6.516;2022-12-18T01:25:45;-2.90;99.90
60723;DHT22;46574;52.818;6.516;2022-12-18T01:28:11;-2.90;99.90
60723;DHT22;46574;52.818;6.516;2022-12-18T01:30:37;-2.90;99.90
60723;DHT22;46574;52.818;6.516;2022-12-18T01:33:04;-2.90;99.90
60723;DHT22;46574;52.818;6.516;2022-12-18T01:35:30;-3.00;99.90
60723;DHT22;46574;52.818;6.516;2022-12-18T01:37:56;-3.00;99.90
60723;DHT22;46574;52.818;6.516;2022-12-18T01:40:22;-3.00;99.90
60723;DHT22;46574;52.818;6.516;2022-12-18T01:42:54;-3.00;99.90
60723;DHT22;46574;52.818;6.516;2022-12-18T01:45:26;-3.00;99.90
60723;DHT22;46574;52.818;6.516;2022-12-18T01:47:59;-3.00;99.90
60723;DHT22;46574;52.818;6.516;2022-12-18T01:50:34;-3.10;99.90
60723;DHT22;46574;52.818;6.516;2022-12-18T01:55:32;-3.10;99.90
60723;DHT22;46574;52.818;6.516;2022-12-18T01:58:00;-3.10;99.90
60723;DHT22;46574;52.818;6.516;2022-12-18T02:00:26;-3.20;99.90
60723;DHT22;46574;52.818;6.516;2022-12-18T02:02:54;-3.20;99.90
60723;DHT22;46574;52.818;6.516;2022-12-18T02:05:54;-3.20;99.90
60723;DHT22;46574;52.818;6.516;2022-12-18T02:08:57;-3.20;99.90
60723;DHT22;46574;52.818;6.516;2022-12-18T02:12:10;-3.30;99.90
60723;DHT22;46574;52.818;6.516;2022-12-18T02:14:30;-3.30;99.90
60723;DHT22;46574;52.818;6.516;2022-12-18T02:17:12;-3.40;99.90
60723;DHT22;46574;52.818;6.516;2022-12-18T02:23:06;-3.40;99.90
60723;DHT22;46574;52.818;6.516;2022-12-18T02:28:31;-3.50;99.90
60723;DHT22;46574;52.818;6.516;2022-12-18T02:31:00;-3.50;99.90
60723;DHT22;46574;52.818;6.516;2022-12-18T02:33:27;-3.50;99.90
60723;DHT22;46574;52.818;6.516;2022-12-18T02:35:55;-3.60;99.90
60723;DHT22;46574;52.818;6.516;2022-12-18T02:38:23;-3.60;99.90
60723;DHT22;46574;52.818;6.516;2022-12-18T02:40:51;-3.70;99.90
60723;DHT22;46574;52.818;6.516;2022-12-18T02:43:19;-3.70;99.90
60723;DHT22;46574;52.818;6.516;2022-12-18T02:45:50;-3.70;99.90
60723;DHT22;46574;52.818;6.516;2022-12-18T02:48:22;-3.70;99.90
60723;DHT22;46574;52.818;6.516;2022-12-18T02:51:03;-3.80;99.90
60723;DHT22;46574;52.818;6.516;2022-12-18T02:53:38;-3.80;99.90
60723;DHT22;46574;52.818;6.516;2022-12-18T02:59:09;-3.80;99.90
60723;DHT22;46574;52.818;6.516;2022-12-18T03:01:57;-3.90;99.90
60723;DHT22;46574;52.818;6.516;2022-12-18T03:04:40;-3.90;99.90
60723;DHT22;46574;52.818;6.516;2022-12-18T03:07:16;-3.90;99.90
60723;DHT22;46574;52.818;6.516;2022-12-18T03:09:47;-3.90;99.90
60723;DHT22;46574;52.818;6.516;2022-12-18T03:12:32;-3.90;99.90
60723;DHT22;46574;52.818;6.516;2022-12-18T03:15:24;-3.90;99.90
60723;DHT22;46574;52.818;6.516;2022-12-18T03:17:59;-3.90;99.90
60723;DHT22;46574;52.818;6.516;2022-12-18T03:20:29;-3.90;99.90
60723;DHT22;46574;52.818;6.516;2022-12-18T03:23:02;-3.90;99.90
60723;DHT22;46574;52.818;6.516;2022-12-18T03:25:30;-4.00;99.90
60723;DHT22;46574;52.818;6.516;2022-12-18T03:27:58;-4.00;99.90
60723;DHT22;46574;52.818;6.516;2022-12-18T03:30:26;-4.00;99.90
60723;DHT22;46574;52.818;6.516;2022-12-18T03:32:58;-4.10;99.90
60723;DHT22;46574;52.818;6.516;2022-12-18T03:35:33;-4.10;99.90
60723;DHT22;46574;52.818;6.516;2022-12-18T03:38:00;-4.10;99.90
60723;DHT22;46574;52.818;6.516;2022-12-18T03:40:35;-4.10;99.90
60723;DHT22;46574;52.818;6.516;2022-12-18T03:43:10;-4.10;99.90
60723;DHT22;46574;52.818;6.516;2022-12-18T03:45:42;-4.10;99.90
60723;DHT22;46574;52.818;6.516;2022-12-18T03:50:45;-4.10;99.90
60723;DHT22;46574;52.818;6.516;2022-12-18T03:53:29;-4.10;99.90
60723;DHT22;46574;52.818;6.516;2022-12-18T03:55:58;-4.20;99.90
60723;DHT22;46574;52.818;6.516;2022-12-18T03:58:25;-4.20;99.90
60723;DHT22;46574;52.818;6.516;2022-12-18T04:00:54;-4.20;99.90
60723;DHT22;46574;52.818;6.516;2022-12-18T04:03:22;-4.20;99.90
60723;DHT22;46574;52.818;6.516;2022-12-18T04:05:49;-4.30;99.90
60723;DHT22;46574;52.818;6.516;2022-12-18T04:08:16;-4.30;99.90
60723;DHT22;46574;52.818;6.516;2022-12-18T04:10:42;-4.30;99.90
60723;DHT22;46574;52.818;6.516;2022-12-18T04:13:09;-4.30;99.90
60723;DHT22;46574;52.818;6.516;2022-12-18T04:15:36;-4.30;99.90
60723;DHT22;46574;52.818;6.516;2022-12-18T04:18:02;-4.30;99.90
60723;DHT22;46574;52.818;6.516;2022-12-18T04:20:28;-4.40;99.90
60723;DHT22;46574;52.818;6.516;2022-12-18T04:22:54;-4.40;99.90
60723;DHT22;46574;52.818;6.516;2022-12-18T04:25:20;-4.40;99.90
60723;DHT22;46574;52.818;6.516;2022-12-18T04:27:45;-4.40;99.90
60723;DHT22;46574;52.818;6.516;2022-12-18T04:30:11;-4.40;99.90
60723;DHT22;46574;52.818;6.516;2022-12-18T04:32:37;-4.40;99.90
60723;DHT22;46574;52.818;6.516;2022-12-18T04:35:03;-4.40;99.90
60723;DHT22;46574;52.818;6.516;2022-12-18T04:37:29;-4.40;99.90
60723;DHT22;46574;52.818;6.516;2022-12-18T04:39:55;-4.40;99.90
60723;DHT22;46574;52.818;6.516;2022-12-18T04:42:21;-4.40;99.90
60723;DHT22;46574;52.818;6.516;2022-12-18T04:44:46;-4.40;99.90
60723;DHT22;46574;52.818;6.516;2022-12-18T04:47:12;-4.40;99.90
60723;DHT22;46574;52.818;6.516;2022-12-18T04:49:38;-4.40;99.90
60723;DHT22;46574;52.818;6.516;2022-12-18T04:52:03;-4.40;99.90
60723;DHT22;46574;52.818;6.516;2022-12-18T04:54:29;-4.40;99.90
60723;DHT22;46574;52.818;6.516;2022-12-18T04:56:55;-4.40;99.90
60723;DHT22;46574;52.818;6.516;2022-12-18T04:59:20;-4.40;99.90
60723;DHT22;46574;52.818;6.516;2022-12-18T05:01:46;-4.40;99.90
60723;DHT22;46574;52.818;6.516;2022-12-18T05:04:11;-4.40;99.90
60723;DHT22;46574;52.818;6.516;2022-12-18T05:06:37;-4.40;99.90
60723;DHT22;46574;52.818;6.516;2022-12-18T05:09:03;-4.50;99.90
60723;DHT22;46574;52.818;6.516;2022-12-18T05:11:28;-4.50;99.90
60723;DHT22;46574;52.818;6.516;2022-12-18T05:13:54;-4.50;99.90
60723;DHT22;46574;52.818;6.516;2022-12-18T05:16:20;-4.50;99.90
60723;DHT22;46574;52.818;6.516;2022-12-18T05:18:45;-4.50;99.90
60723;DHT22;46574;52.818;6.516;2022-12-18T05:21:11;-4.50;99.90
60723;DHT22;46574;52.818;6.516;2022-12-18T05:23:37;-4.60;99.90
60723;DHT22;46574;52.818;6.516;2022-12-18T05:26:04;-4.60;99.90
60723;DHT22;46574;52.818;6.516;2022-12-18T05:28:32;-4.60;99.90
60723;DHT22;46574;52.818;6.516;2022-12-18T05:31:00;-4.60;99.90
60723;DHT22;46574;52.818;6.516;2022-12-18T05:33:30;-4.60;99.90
60723;DHT22;46574;52.818;6.516;2022-12-18T05:35:57;-4.60;99.90
60723;DHT22;46574;52.818;6.516;2022-12-18T05:38:25;-4.60;99.90
60723;DHT22;46574;52.818;6.516;2022-12-18T05:40:52;-4.60;99.90
60723;DHT22;46574;52.818;6.516;2022-12-18T05:43:19;-4.60;99.90
60723;DHT22;46574;52.818;6.516;2022-12-18T05:45:45;-4.60;99.90
60723;DHT22;46574;52.818;6.516;2022-12-18T05:48:14;-4.60;99.90
60723;DHT22;46574;52.818;6.516;2022-12-18T05:50:41;-4.70;99.90
60723;DHT22;46574;52.818;6.516;2022-12-18T05:53:07;-4.70;99.90
60723;DHT22;46574;52.818;6.516;2022-12-18T05:55:34;-4.70;99.90
60723;DHT22;46574;52.818;6.516;2022-12-18T05:58:01;-4.70;99.90
60723;DHT22;46574;52.818;6.516;2022-12-18T06:00:27;-4.80;99.90
60723;DHT22;46574;52.818;6.516;2022-12-18T06:02:52;-4.80;99.90
60723;DHT22;46574;52.818;6.516;2022-12-18T06:05:18;-4.80;99.90
60723;DHT22;46574;52.818;6.516;2022-12-18T06:07:43;-4.80;99.90
60723;DHT22;46574;52.818;6.516;2022-12-18T06:10:09;-4.90;99.90
60723;DHT22;46574;52.818;6.516;2022-12-18T06:12:35;-4.90;99.90
60723;DHT22;46574;52.818;6.516;2022-12-18T06:15:01;-4.90;99.90
60723;DHT22;46574;52.818;6.516;2022-12-18T06:17:31;-4.90;99.90
60723;DHT22;46574;52.818;6.516;2022-12-18T06:19:57;-4.90;99.90
60723;DHT22;46574;52.818;6.516;2022-12-18T06:22:23;-4.90;99.90
60723;DHT22;46574;52.818;6.516;2022-12-18T06:24:48;-4.90;99.90
60723;DHT22;46574;52.818;6.516;2022-12-18T06:27:14;-4.90;99.90
60723;DHT22;46574;52.818;6.516;2022-12-18T06:29:39;-4.90;99.90
60723;DHT22;46574;52.818;6.516;2022-12-18T06:32:06;-4.90;99.90
60723;DHT22;46574;52.818;6.516;2022-12-18T06:34:32;-4.90;99.90
60723;DHT22;46574;52.818;6.516;2022-12-18T06:36:58;-5.00;99.90
60723;DHT22;46574;52.818;6.516;2022-12-18T06:39:24;-5.00;99.90
60723;DHT22;46574;52.818;6.516;2022-12-18T06:41:52;-5.10;99.90
60723;DHT22;46574;52.818;6.516;2022-12-18T06:44:17;-5.10;99.90
60723;DHT22;46574;52.818;6.516;2022-12-18T06:46:43;-5.20;99.90
60723;DHT22;46574;52.818;6.516;2022-12-18T06:49:09;-5.20;99.90
60723;DHT22;46574;52.818;6.516;2022-12-18T06:51:35;-5.30;99.90
60723;DHT22;46574;52.818;6.516;2022-12-18T06:54:01;-5.30;99.90
60723;DHT22;46574;52.818;6.516;2022-12-18T06:56:26;-5.30;99.90
60723;DHT22;46574;52.818;6.516;2022-12-18T06:58:53;-5.30;99.90
60723;DHT22;46574;52.818;6.516;2022-12-18T07:01:19;-5.30;99.90
60723;DHT22;46574;52.818;6.516;2022-12-18T07:03:45;-5.20;99.90
60723;DHT22;46574;52.818;6.516;2022-12-18T07:06:16;-5.20;99.90
60723;DHT22;46574;52.818;6.516;2022-12-18T07:08:42;-5.20;99.90
60723;DHT22;46574;52.818;6.516;2022-12-18T07:11:08;-5.20;99.90
60723;DHT22;46574;52.818;6.516;2022-12-18T07:13:34;-5.20;99.90
60723;DHT22;46574;52.818;6.516;2022-12-18T07:16:13;-5.20;99.90
60723;DHT22;46574;52.818;6.516;2022-12-18T07:18:39;-5.20;99.90
60723;DHT22;46574;52.818;6.516;2022-12-18T07:21:11;-5.20;99.90
60723;DHT22;46574;52.818;6.516;2022-12-18T07:23:38;-5.20;99.90
60723;DHT22;46574;52.818;6.516;2022-12-18T07:26:08;-5.30;99.90
60723;DHT22;46574;52.818;6.516;2022-12-18T07:28:36;-5.30;99.90
60723;DHT22;46574;52.818;6.516;2022-12-18T07:31:10;-5.30;99.90
60723;DHT22;46574;52.818;6.516;2022-12-18T07:33:37;-5.30;99.90
60723;DHT22;46574;52.818;6.516;2022-12-18T07:36:04;-5.30;99.90
60723;DHT22;46574;52.818;6.516;2022-12-18T07:38:31;-5.40;99.90
60723;DHT22;46574;52.818;6.516;2022-12-18T07:41:05;-5.40;99.90
60723;DHT22;46574;52.818;6.516;2022-12-18T07:43:31;-5.40;99.90
60723;DHT22;46574;52.818;6.516;2022-12-18T07:45:57;-5.40;99.90
60723;DHT22;46574;52.818;6.516;2022-12-18T07:48:23;-5.40;99.90
60723;DHT22;46574;52.818;6.516;2022-12-18T07:50:48;-5.40;99.90
60723;DHT22;46574;52.818;6.516;2022-12-18T07:53:14;-5.30;99.90
60723;DHT22;46574;52.818;6.516;2022-12-18T07:55:41;-5.30;99.90
60723;DHT22;46574;52.818;6.516;2022-12-18T07:58:07;-5.30;99.90
60723;DHT22;46574;52.818;6.516;2022-12-18T08:00:33;-5.20;99.90
60723;DHT22;46574;52.818;6.516;2022-12-18T08:02:59;-5.20;99.90
60723;DHT22;46574;52.818;6.516;2022-12-18T08:05:25;-5.20;99.90
60723;DHT22;46574;52.818;6.516;2022-12-18T08:07:51;-5.20;99.90
60723;DHT22;46574;52.818;6.516;2022-12-18T08:10:17;-5.20;99.90
60723;DHT22;46574;52.818;6.516;2022-12-18T08:12:42;-5.20;99.90
60723;DHT22;46574;52.818;6.516;2022-12-18T08:15:09;-5.20;99.90
60723;DHT22;46574;52.818;6.516;2022-12-18T08:17:34;-5.20;99.90
60723;DHT22;46574;52.818;6.516;2022-12-18T08:20:00;-5.20;99.90
60723;DHT22;46574;52.818;6.516;2022-12-18T08:22:26;-5.10;99.90
60723;DHT22;46574;52.818;6.516;2022-12-18T08:24:51;-5.10;99.90
60723;DHT22;46574;52.818;6.516;2022-12-18T08:27:17;-5.10;99.90
60723;DHT22;46574;52.818;6.516;2022-12-18T08:29:43;-5.00;99.90
60723;DHT22;46574;52.818;6.516;2022-12-18T08:32:10;-4.90;99.90
60723;DHT22;46574;52.818;6.516;2022-12-18T08:34:35;-4.90;99.90
60723;DHT22;46574;52.818;6.516;2022-12-18T08:37:01;-4.80;99.90
60723;DHT22;46574;52.818;6.516;2022-12-18T08:39:26;-4.80;99.90
60723;DHT22;46574;52.818;6.516;2022-12-18T08:41:52;-4.80;99.90
60723;DHT22;46574;52.818;6.516;2022-12-18T08:44:36;-4.70;99.90
60723;DHT22;46574;52.818;6.516;2022-12-18T08:47:02;-4.70;99.90
60723;DHT22;46574;52.818;6.516;2022-12-18T08:49:28;-4.60;99.90
60723;DHT22;46574;52.818;6.516;2022-12-18T08:51:55;-4.60;99.90
60723;DHT22;46574;52.818;6.516;2022-12-18T08:54:22;-4.50;99.90
60723;DHT22;46574;52.818;6.516;2022-12-18T08:56:48;-4.50;99.90
60723;DHT22;46574;52.818;6.516;2022-12-18T08:59:15;-4.40;99.90
60723;DHT22;46574;52.818;6.516;2022-12-18T09:01:41;-4.40;99.90
60723;DHT22;46574;52.818;6.516;2022-12-18T09:04:08;-4.30;99.90
60723;DHT22;46574;52.818;6.516;2022-12-18T09:06:34;-4.20;99.90
60723;DHT22;46574;52.818;6.516;2022-12-18T09:09:00;-4.20;99.90
60723;DHT22;46574;52.818;6.516;2022-12-18T09:11:27;-4.10;99.90
60723;DHT22;46574;52.818;6.516;2022-12-18T09:13:53;-4.00;99.90
60723;DHT22;46574;52.818;6.516;2022-12-18T09:16:20;-4.00;99.90
60723;DHT22;46574;52.818;6.516;2022-12-18T09:18:46;-3.90;99.90
60723;DHT22;46574;52.818;6.516;2022-12-18T09:21:20;-3.90;99.90
60723;DHT22;46574;52.818;6.516;2022-12-18T09:23:54;-3.80;99.90
60723;DHT22;46574;52.818;6.516;2022-12-18T09:26:21;-3.70;99.90
60723;DHT22;46574;52.818;6.516;2022-12-18T09:28:47;-3.60;99.90
60723;DHT22;46574;52.818;6.516;2022-12-18T09:31:17;-3.60;99.90
60723;DHT22;46574;52.818;6.516;2022-12-18T09:33:43;-3.50;99.90
60723;DHT22;46574;52.818;6.516;2022-12-18T09:36:13;-3.40;99.90
60723;DHT22;46574;52.818;6.516;2022-12-18T09:38:39;-3.30;99.90
60723;DHT22;46574;52.818;6.516;2022-12-18T09:49:43;-3.00;99.90
60723;DHT22;46574;52.818;6.516;2022-12-18T09:52:17;-3.00;99.90
60723;DHT22;46574;52.818;6.516;2022-12-18T09:55:11;-2.80;99.90
60723;DHT22;46574;52.818;6.516;2022-12-18T09:57:38;-2.70;99.90
60723;DHT22;46574;52.818;6.516;2022-12-18T10:00:15;-2.60;99.90
60723;DHT22;46574;52.818;6.516;2022-12-18T10:02:42;-2.60;99.90
60723;DHT22;46574;52.818;6.516;2022-12-18T10:05:12;-2.50;99.90
60723;DHT22;46574;52.818;6.516;2022-12-18T10:08:04;-2.40;99.90
60723;DHT22;46574;52.818;6.516;2022-12-18T10:10:46;-2.40;99.90
60723;DHT22;46574;52.818;6.516;2022-12-18T10:15:51;-2.30;99.90
60723;DHT22;46574;52.818;6.516;2022-12-18T10:24:20;-2.30;99.90
60723;DHT22;46574;52.818;6.516;2022-12-18T10:26:47;-2.30;99.90
60723;DHT22;46574;52.818;6.516;2022-12-18T10:29:14;-2.20;99.90
60723;DHT22;46574;52.818;6.516;2022-12-18T10:31:40;-2.20;99.90
60723;DHT22;46574;52.818;6.516;2022-12-18T10:34:10;-2.20;99.90
60723;DHT22;46574;52.818;6.516;2022-12-18T10:36:37;-2.20;99.90
60723;DHT22;46574;52.818;6.516;2022-12-18T10:41:40;-2.10;99.90
60723;DHT22;46574;52.818;6.516;2022-12-18T10:44:19;-2.00;99.90
60723;DHT22;46574;52.818;6.516;2022-12-18T10:46:55;-2.00;99.90
60723;DHT22;46574;52.818;6.516;2022-12-18T10:49:30;-1.90;99.90
60723;DHT22;46574;52.818;6.516;2022-12-18T10:52:28;-1.90;99.90
60723;DHT22;46574;52.818;6.516;2022-12-18T10:55:02;-1.80;99.90
60723;DHT22;46574;52.818;6.516;2022-12-18T11:00:18;-1.70;99.90
60723;DHT22;46574;52.818;6.516;2022-12-18T11:02:45;-1.70;99.90
60723;DHT22;46574;52.818;6.516;2022-12-18T11:05:37;-1.60;99.90
60723;DHT22;46574;52.818;6.516;2022-12-18T11:08:03;-1.60;99.90
60723;DHT22;46574;52.818;6.516;2022-12-18T11:10:33;-1.60;99.90
60723;DHT22;46574;52.818;6.516;2022-12-18T11:13:12;-1.50;99.90
60723;DHT22;46574;52.818;6.516;2022-12-18T11:15:41;-1.40;99.90
60723;DHT22;46574;52.818;6.516;2022-12-18T11:18:30;-1.40;99.90
60723;DHT22;46574;52.818;6.516;2022-12-18T11:21:06;-1.40;99.90
60723;DHT22;46574;52.818;6.516;2022-12-18T11:23:33;-1.30;99.90
60723;DHT22;46574;52.818;6.516;2022-12-18T11:26:01;-1.30;99.90
60723;DHT22;46574;52.818;6.516;2022-12-18T11:28:40;-1.20;99.90
60723;DHT22;46574;52.818;6.516;2022-12-18T11:31:20;-1.20;99.90
60723;DHT22;46574;52.818;6.516;2022-12-18T11:34:12;-1.10;99.90
60723;DHT22;46574;52.818;6.516;2022-12-18T11:36:45;-1.10;99.90
60723;DHT22;46574;52.818;6.516;2022-12-18T11:39:34;-1.10;99.90
60723;DHT22;46574;52.818;6.516;2022-12-18T11:42:24;-1.00;99.90
60723;DHT22;46574;52.818;6.516;2022-12-18T11:47:47;-1.00;99.90
60723;DHT22;46574;52.818;6.516;2022-12-18T11:50:19;-0.90;99.90
60723;DHT22;46574;52.818;6.516;2022-12-18T11:52:46;-0.90;99.90
60723;DHT22;46574;52.818;6.516;2022-12-18T11:55:39;-0.80;99.90
60723;DHT22;46574;52.818;6.516;2022-12-18T11:58:29;-0.80;99.90
60723;DHT22;46574;52.818;6.516;2022-12-18T12:03:53;-0.80;99.90
60723;DHT22;46574;52.818;6.516;2022-12-18T12:09:26;-0.70;99.90
60723;DHT22;46574;52.818;6.516;2022-12-18T12:17:36;-0.60;99.90
60723;DHT22;46574;52.818;6.516;2022-12-18T12:20:17;-0.60;99.90
60723;DHT22;46574;52.818;6.516;2022-12-18T12:23:26;-0.60;99.90
60723;DHT22;46574;52.818;6.516;2022-12-18T12:26:08;-0.50;99.90
60723;DHT22;46574;52.818;6.516;2022-12-18T12:29:07;-0.50;99.90
60723;DHT22;46574;52.818;6.516;2022-12-18T12:37:39;-0.40;99.90
60723;DHT22;46574;52.818;6.516;2022-12-18T12:40:12;-0.40;99.90
60723;DHT22;46574;52.818;6.516;2022-12-18T12:42:42;-0.40;99.90
60723;DHT22;46574;52.818;6.516;2022-12-18T12:45:54;-0.40;99.90
60723;DHT22;46574;52.818;6.516;2022-12-18T12:51:18;-0.30;99.90
60723;DHT22;46574;52.818;6.516;2022-12-18T12:53:44;-0.20;99.90
60723;DHT22;46574;52.818;6.516;2022-12-18T12:56:13;-0.20;99.90
60723;DHT22;46574;52.818;6.516;2022-12-18T12:58:51;-0.20;99.90
60723;DHT22;46574;52.818;6.516;2022-12-18T13:09:06;-0.10;99.90
60723;DHT22;46574;52.818;6.516;2022-12-18T13:14:32;-0.10;99.90
60723;DHT22;46574;52.818;6.516;2022-12-18T13:19:50;-0.10;99.90
60723;DHT22;46574;52.818;6.516;2022-12-18T13:22:24;-0.10;99.90
60723;DHT22;46574;52.818;6.516;2022-12-18T13:24:50;-0.10;99.90
60723;DHT22;46574;52.818;6.516;2022-12-18T13:38:32;-0.10;99.90
60723;DHT22;46574;52.818;6.516;2022-12-18T13:41:22;0.00;99.90
60723;DHT22;46574;52.818;6.516;2022-12-18T13:43:57;0.00;99.90
60723;DHT22;46574;52.818;6.516;2022-12-18T13:46:46;0.00;99.90
60723;DHT22;46574;52.818;6.516;2022-12-18T13:51:40;0.00;99.90
60723;DHT22;46574;52.818;6.516;2022-12-18T13:54:20;0.10;99.90
60723;DHT22;46574;52.818;6.516;2022-12-18T13:56:48;0.00;99.90
60723;DHT22;46574;52.818;6.516;2022-12-18T13:59:23;0.00;99.90
60723;DHT22;46574;52.818;6.516;2022-12-18T14:01:51;0.00;99.90
60723;DHT22;46574;52.818;6.516;2022-12-18T14:04:34;0.00;99.90
60723;DHT22;46574;52.818;6.516;2022-12-18T14:09:57;0.00;99.90
60723;DHT22;46574;52.818;6.516;2022-12-18T14:12:31;0.00;99.90
60723;DHT22;46574;52.818;6.516;2022-12-18T14:18:02;-0.10;99.90
60723;DHT22;46574;52.818;6.516;2022-12-18T14:20:31;-0.10;99.90
60723;DHT22;46574;52.818;6.516;2022-12-18T14:22:58;-0.10;99.90
60723;DHT22;46574;52.818;6.516;2022-12-18T14:25:27;-0.10;99.90
60723;DHT22;46574;52.818;6.516;2022-12-18T14:28:13;-0.10;99.90
60723;DHT22;46574;52.818;6.516;2022-12-18T14:30:42;-0.10;99.90
60723;DHT22;46574;52.818;6.516;2022-12-18T14:35:36;-0.10;99.90
60723;DHT22;46574;52.818;6.516;2022-12-18T14:40:54;-0.10;99.90
60723;DHT22;46574;52.818;6.516;2022-12-18T14:43:20;-0.20;99.90
60723;DHT22;46574;52.818;6.516;2022-12-18T14:45:46;-0.20;99.90
60723;DHT22;46574;52.818;6.516;2022-12-18T14:48:38;-0.20;99.90
60723;DHT22;46574;52.818;6.516;2022-12-18T14:53:47;-0.20;99.90
60723;DHT22;46574;52.818;6.516;2022-12-18T14:56:22;-0.20;99.90
60723;DHT22;46574;52.818;6.516;2022-12-18T14:58:50;-0.30;99.90
60723;DHT22;46574;52.818;6.516;2022-12-18T15:01:25;-0.30;99.90
60723;DHT22;46574;52.818;6.516;2022-12-18T15:03:53;-0.30;99.90
60723;DHT22;46574;52.818;6.516;2022-12-18T15:06:36;-0.30;99.90
60723;DHT22;46574;52.818;6.516;2022-12-18T15:09:23;-0.30;99.90
60723;DHT22;46574;52.818;6.516;2022-12-18T15:11:56;-0.40;99.90
60723;DHT22;46574;52.818;6.516;2022-12-18T15:14:40;-0.40;99.90
60723;DHT22;46574;52.818;6.516;2022-12-18T15:17:18;-0.40;99.90
60723;DHT22;46574;52.818;6.516;2022-12-18T15:19:46;-0.40;99.90
60723;DHT22;46574;52.818;6.516;2022-12-18T15:24:46;-0.40;99.90
60723;DHT22;46574;52.818;6.516;2022-12-18T15:27:26;-0.40;99.90
60723;DHT22;46574;52.818;6.516;2022-12-18T15:32:34;-0.40;99.90
60723;DHT22;46574;52.818;6.516;2022-12-18T15:35:16;-0.40;99.90
60723;DHT22;46574;52.818;6.516;2022-12-18T15:37:42;-0.40;99.90
60723;DHT22;46574;52.818;6.516;2022-12-18T15:40:15;-0.40;99.90
60723;DHT22;46574;52.818;6.516;2022-12-18T15:42:41;-0.50;99.90
60723;DHT22;46574;52.818;6.516;2022-12-18T15:45:26;-0.50;99.90
60723;DHT22;46574;52.818;6.516;2022-12-18T15:47:52;-0.50;99.90
60723;DHT22;46574;52.818;6.516;2022-12-18T15:50:17;-0.50;99.90
60723;DHT22;46574;52.818;6.516;2022-12-18T15:52:45;-0.50;99.90
60723;DHT22;46574;52.818;6.516;2022-12-18T15:55:17;-0.50;99.90
60723;DHT22;46574;52.818;6.516;2022-12-18T15:58:01;-0.40;99.90
60723;DHT22;46574;52.818;6.516;2022-12-18T16:00:27;-0.50;99.90
60723;DHT22;46574;52.818;6.516;2022-12-18T16:02:52;-0.50;99.90
60723;DHT22;46574;52.818;6.516;2022-12-18T16:05:24;-0.50;99.90
60723;DHT22;46574;52.818;6.516;2022-12-18T16:07:51;-0.50;99.90
60723;DHT22;46574;52.818;6.516;2022-12-18T16:10:17;-0.50;99.90
60723;DHT22;46574;52.818;6.516;2022-12-18T16:12:43;-0.50;99.90
60723;DHT22;46574;52.818;6.516;2022-12-18T16:15:11;-0.50;99.90
60723;DHT22;46574;52.818;6.516;2022-12-18T16:17:39;-0.50;99.90
60723;DHT22;46574;52.818;6.516;2022-12-18T16:20:07;-0.50;99.90
60723;DHT22;46574;52.818;6.516;2022-12-18T16:22:33;-0.50;99.90
60723;DHT22;46574;52.818;6.516;2022-12-18T16:24:59;-0.50;99.90
60723;DHT22;46574;52.818;6.516;2022-12-18T16:27:25;-0.50;99.90
60723;DHT22;46574;52.818;6.516;2022-12-18T16:29:51;-0.50;99.90
60723;DHT22;46574;52.818;6.516;2022-12-18T16:32:19;-0.50;99.90
60723;DHT22;46574;52.818;6.516;2022-12-18T16:34:45;-0.50;99.90
60723;DHT22;46574;52.818;6.516;2022-12-18T16:37:13;-0.50;99.90
60723;DHT22;46574;52.818;6.516;2022-12-18T16:39:40;-0.50;99.90
60723;DHT22;46574;52.818;6.516;2022-12-18T16:42:17;-0.50;99.90
60723;DHT22;46574;52.818;6.516;2022-12-18T16:44:45;-0.50;99.90
60723;DHT22;46574;52.818;6.516;2022-12-18T16:47:12;-0.50;99.90
60723;DHT22;46574;52.818;6.516;2022-12-18T16:49:38;-0.50;99.90
60723;DHT22;46574;52.818;6.516;2022-12-18T16:52:05;-0.40;99.90
60723;DHT22;46574;52.818;6.516;2022-12-18T16:54:30;-0.40;99.90
60723;DHT22;46574;52.818;6.516;2022-12-18T16:56:58;-0.40;99.90
60723;DHT22;46574;52.818;6.516;2022-12-18T16:59:25;-0.40;99.90
60723;DHT22;46574;52.818;6.516;2022-12-18T17:01:51;-0.40;99.90
60723;DHT22;46574;52.818;6.516;2022-12-18T17:04:17;-0.40;99.90
60723;DHT22;46574;52.818;6.516;2022-12-18T17:06:44;-0.40;99.90
60723;DHT22;46574;52.818;6.516;2022-12-18T17:09:12;-0.40;99.90
60723;DHT22;46574;52.818;6.516;2022-12-18T17:11:41;-0.30;99.90
60723;DHT22;46574;52.818;6.516;2022-12-18T17:14:09;-0.40;99.90
60723;DHT22;46574;52.818;6.516;2022-12-18T17:16:35;-0.40;99.90
60723;DHT22;46574;52.818;6.516;2022-12-18T17:19:01;-0.40;99.90
60723;DHT22;46574;52.818;6.516;2022-12-18T17:21:26;-0.40;99.90
60723;DHT22;46574;52.818;6.516;2022-12-18T17:23:53;-0.40;99.90
60723;DHT22;46574;52.818;6.516;2022-12-18T17:26:18;-0.30;99.90
60723;DHT22;46574;52.818;6.516;2022-12-18T17:28:44;-0.30;99.90
60723;DHT22;46574;52.818;6.516;2022-12-18T17:31:16;-0.30;99.90
60723;DHT22;46574;52.818;6.516;2022-12-18T17:33:42;-0.30;99.90
60723;DHT22;46574;52.818;6.516;2022-12-18T17:36:07;-0.30;99.90
60723;DHT22;46574;52.818;6.516;2022-12-18T17:38:33;-0.30;99.90